createdAt,value
2023-04-15T00:01:52.409Z,4.40
2023-04-15T00:04:19.503Z,5.03
2023-04-15T00:06:53.319Z,4.90
2023-04-15T00:09:21.479Z,6.78
2023-04-15T00:11:48.362Z,7.18
2023-04-15T00:14:15.626Z,8.40
2023-04-15T00:16:42.626Z,7.57
2023-04-15T00:19:09.577Z,8.95
2023-04-15T00:21:36.548Z,10.52
2023-04-15T00:24:03.824Z,10.40
2023-04-15T00:26:30.709Z,9.65
2023-04-15T00:28:58.414Z,8.88
2023-04-15T00:31:25.852Z,8.57
2023-04-15T00:33:53.311Z,8.05
2023-04-15T00:36:20.232Z,7.55
2023-04-15T00:38:47.335Z,7.03
2023-04-15T00:41:14.314Z,8.27
2023-04-15T00:43:41.526Z,9.13
2023-04-15T00:46:10.639Z,6.68
2023-04-15T00:48:39.004Z,6.53
2023-04-15T00:51:07.230Z,6.57
2023-04-15T00:53:34.185Z,5.53
2023-04-15T00:56:01.138Z,5.43
2023-04-15T00:58:28.370Z,5.00
2023-04-15T01:00:56.361Z,5.28
2023-04-15T01:03:23.456Z,6.20
2023-04-15T01:05:51.153Z,6.22
2023-04-15T01:08:18.056Z,5.82
2023-04-15T01:10:45.549Z,5.90
2023-04-15T01:13:12.502Z,6.03
2023-04-15T01:15:39.628Z,6.78
2023-04-15T01:18:07.595Z,5.55
2023-04-15T01:20:35.449Z,4.97
2023-04-15T01:23:02.774Z,4.72
2023-04-15T01:25:34.122Z,4.40
2023-04-15T01:28:01.329Z,4.22
2023-04-15T01:30:28.281Z,4.07
2023-04-15T01:32:55.272Z,3.88
2023-04-15T01:35:22.691Z,4.45
2023-04-15T01:37:49.934Z,4.18
2023-04-15T01:40:16.885Z,3.65
2023-04-15T01:42:43.840Z,4.22
2023-04-15T01:45:11.174Z,4.05
2023-04-15T01:47:38.162Z,4.03
2023-04-15T01:50:05.889Z,3.95
2023-04-15T01:52:32.939Z,3.92
2023-04-15T01:54:59.835Z,4.57
2023-04-15T01:57:27.122Z,4.25
2023-04-15T01:59:54.008Z,3.90
2023-04-15T02:02:21.291Z,4.45
2023-04-15T02:04:48.331Z,4.10
2023-04-15T02:07:15.282Z,4.18
2023-04-15T02:09:43.658Z,4.00
2023-04-15T02:12:10.498Z,4.18
2023-04-15T02:14:37.390Z,3.97
2023-04-15T02:17:07.457Z,3.92
2023-04-15T02:19:35.577Z,3.70
2023-04-15T02:22:02.728Z,4.00
2023-04-15T02:24:31.285Z,4.35
2023-04-15T02:26:58.434Z,4.10
2023-04-15T02:29:25.606Z,4.07
2023-04-15T02:31:52.659Z,4.22
2023-04-15T02:34:19.587Z,4.10
2023-04-15T02:36:48.749Z,4.10
2023-04-15T02:39:16.954Z,4.47
2023-04-15T02:41:47.714Z,4.80
2023-04-15T02:44:14.713Z,4.60
2023-04-15T02:46:41.685Z,4.95
2023-04-15T02:49:08.705Z,4.88
2023-04-15T02:51:35.660Z,4.70
2023-04-15T02:54:02.525Z,4.70
2023-04-15T02:56:30.263Z,5.05
2023-04-15T02:58:57.462Z,4.82
2023-04-15T03:01:24.528Z,4.60
2023-04-15T03:03:51.602Z,4.70
2023-04-15T03:06:18.486Z,4.78
2023-04-15T03:08:45.748Z,5.03
2023-04-15T03:11:12.833Z,4.90
2023-04-15T03:13:41.853Z,4.47
2023-04-15T03:16:09.358Z,4.88
2023-04-15T03:18:36.381Z,4.53
2023-04-15T03:21:03.396Z,4.68
2023-04-15T03:23:31.742Z,5.05
2023-04-15T03:26:01.732Z,5.00
2023-04-15T03:28:29.640Z,4.47
2023-04-15T03:30:56.694Z,5.28
2023-04-15T03:33:23.618Z,4.82
2023-04-15T03:35:52.021Z,5.82
2023-04-15T03:38:19.107Z,4.43
2023-04-15T03:40:47.343Z,4.47
2023-04-15T03:43:14.336Z,5.30
2023-04-15T03:45:41.247Z,5.32
2023-04-15T03:48:17.284Z,5.50
2023-04-15T03:50:46.103Z,5.50
2023-04-15T03:53:13.078Z,4.70
2023-04-15T03:55:40.222Z,5.25
2023-04-15T03:58:07.304Z,5.78
2023-04-15T04:00:34.177Z,5.07
2023-04-15T04:03:01.273Z,5.20
2023-04-15T04:05:28.311Z,5.15
2023-04-15T04:07:56.654Z,5.40
2023-04-15T04:10:23.594Z,5.35
2023-04-15T04:12:50.678Z,5.05
2023-04-15T04:15:17.648Z,5.18
2023-04-15T04:17:44.634Z,5.38
2023-04-15T04:20:12.458Z,5.30
2023-04-15T04:22:40.529Z,4.88
2023-04-15T04:25:08.785Z,5.10
2023-04-15T04:27:36.147Z,5.47
2023-04-15T04:30:03.509Z,5.07
2023-04-15T04:32:30.658Z,5.43
2023-04-15T04:34:57.537Z,5.70
2023-04-15T04:37:24.910Z,5.18
2023-04-15T04:39:51.836Z,5.13
2023-04-15T04:42:18.827Z,5.40
2023-04-15T04:44:45.659Z,5.78
2023-04-15T04:47:12.617Z,5.75
2023-04-15T04:49:39.478Z,5.50
2023-04-15T04:52:06.870Z,5.57
2023-04-15T04:54:33.967Z,5.40
2023-04-15T04:57:00.918Z,5.32
2023-04-15T04:59:28.290Z,5.53
2023-04-15T05:01:55.553Z,6.10
2023-04-15T05:04:22.509Z,5.55
2023-04-15T05:06:49.369Z,6.07
2023-04-15T05:09:16.605Z,6.50
2023-04-15T05:11:43.505Z,6.10
2023-04-15T05:14:10.444Z,6.00
2023-04-15T05:16:37.383Z,6.50
2023-04-15T05:19:04.306Z,6.43
2023-04-15T05:21:31.751Z,6.32
2023-04-15T05:23:58.679Z,6.65
2023-04-15T05:26:25.595Z,6.68
2023-04-15T05:28:52.519Z,6.75
2023-04-15T05:31:19.546Z,6.63
2023-04-15T05:33:46.530Z,6.35
2023-04-15T05:36:13.536Z,6.40
2023-04-15T05:38:40.419Z,5.97
2023-04-15T05:41:07.356Z,6.35
2023-04-15T05:43:34.254Z,6.22
2023-04-15T05:46:01.415Z,5.88
2023-04-15T05:48:28.358Z,5.68
2023-04-15T05:50:55.289Z,5.78
2023-04-15T05:53:22.479Z,6.40
2023-04-15T05:55:49.329Z,6.10
2023-04-15T05:58:16.294Z,6.13
2023-04-15T06:00:43.948Z,6.20
2023-04-15T06:03:11.969Z,6.25
2023-04-15T06:05:39.099Z,6.30
2023-04-15T06:08:06.308Z,6.30
2023-04-15T06:10:36.725Z,5.97
2023-04-15T06:13:04.369Z,6.20
2023-04-15T06:15:31.766Z,6.10
2023-04-15T06:17:58.888Z,6.15
2023-04-15T06:20:26.258Z,6.53
2023-04-15T06:22:53.354Z,5.50
2023-04-15T06:25:20.374Z,6.57
2023-04-15T06:27:48.349Z,6.30
2023-04-15T06:30:15.373Z,6.15
2023-04-15T06:32:42.354Z,5.85
2023-04-15T06:35:10.133Z,6.05
2023-04-15T06:37:37.066Z,5.55
2023-04-15T06:40:05.326Z,5.95
2023-04-15T06:42:32.771Z,6.72
2023-04-15T06:44:59.692Z,6.10
2023-04-15T06:47:26.791Z,5.88
2023-04-15T06:49:53.858Z,5.85
2023-04-15T06:52:21.212Z,6.35
2023-04-15T06:54:48.147Z,6.15
2023-04-15T06:57:15.109Z,5.75
2023-04-15T06:59:45.044Z,6.38
2023-04-15T07:02:13.653Z,6.20
2023-04-15T07:04:40.898Z,6.68
2023-04-15T07:07:08.103Z,6.10
2023-04-15T07:09:34.993Z,5.95
2023-04-15T07:12:01.931Z,6.43
2023-04-15T07:14:29.579Z,5.97
2023-04-15T07:16:56.605Z,6.15
2023-04-15T07:19:23.723Z,5.72
2023-04-15T07:21:50.573Z,6.30
2023-04-15T07:24:19.705Z,6.93
2023-04-15T07:26:47.109Z,6.68
2023-04-15T07:29:14.035Z,6.78
2023-04-15T07:31:42.384Z,7.68
2023-04-15T07:34:09.452Z,7.25
2023-04-15T07:36:36.922Z,7.70
2023-04-15T07:39:04.497Z,7.90
2023-04-15T07:41:31.880Z,8.02
2023-04-15T07:43:59.031Z,8.15
2023-04-15T07:46:27.416Z,7.57
2023-04-15T07:48:54.507Z,8.65
2023-04-15T07:51:21.620Z,8.63
2023-04-15T07:53:50.443Z,9.65
2023-04-15T07:56:17.391Z,8.50
2023-04-15T07:58:44.346Z,9.25
2023-04-15T08:01:11.696Z,9.05
2023-04-15T08:03:39.631Z,9.68
2023-04-15T08:06:06.715Z,9.50
2023-04-15T08:08:33.657Z,9.50
2023-04-15T08:11:00.703Z,9.45
2023-04-15T08:13:28.000Z,9.35
2023-04-15T08:16:16.920Z,9.52
2023-04-15T08:18:43.848Z,9.70
2023-04-15T08:21:11.807Z,9.45
2023-04-15T08:23:39.340Z,10.18
2023-04-15T08:26:06.488Z,9.68
2023-04-15T08:28:33.582Z,8.60
2023-04-15T08:31:00.627Z,9.00
2023-04-15T08:33:28.915Z,7.90
2023-04-15T08:35:55.816Z,8.15
2023-04-15T08:38:22.946Z,7.20
2023-04-15T08:40:49.993Z,7.32
2023-04-15T08:43:26.684Z,7.18
2023-04-15T08:45:54.228Z,6.43
2023-04-15T08:48:22.851Z,6.72
2023-04-15T08:50:49.690Z,7.30
2023-04-15T08:53:16.962Z,6.93
2023-04-15T08:55:46.212Z,6.47
2023-04-15T08:58:14.614Z,6.88
2023-04-15T09:00:43.069Z,7.13
2023-04-15T09:03:10.787Z,6.97
2023-04-15T09:05:38.489Z,6.20
2023-04-15T09:08:06.019Z,6.97
2023-04-15T09:10:33.740Z,7.28
2023-04-15T09:13:02.116Z,7.22
2023-04-15T09:15:30.348Z,7.18
2023-04-15T09:17:57.318Z,7.15
2023-04-15T09:20:24.711Z,7.20
2023-04-15T09:22:52.501Z,7.03
2023-04-15T09:25:22.405Z,7.50
2023-04-15T09:28:07.317Z,6.10
2023-04-15T09:30:34.766Z,5.32
2023-04-15T09:33:04.956Z,5.03
2023-04-15T09:35:32.006Z,4.63
2023-04-15T09:38:10.267Z,4.88
2023-04-15T09:40:43.374Z,4.75
2023-04-15T09:43:13.162Z,5.25
2023-04-15T09:45:51.442Z,5.85
2023-04-15T09:48:25.496Z,6.65
2023-04-15T09:50:54.076Z,5.88
2023-04-15T09:53:23.398Z,6.05
2023-04-15T09:55:58.531Z,5.55
2023-04-15T09:58:27.602Z,6.50
2023-04-15T10:00:57.025Z,5.32
2023-04-15T10:03:26.734Z,5.60
2023-04-15T10:05:56.757Z,5.53
2023-04-15T10:08:29.106Z,4.68
2023-04-15T10:10:56.785Z,3.92
2023-04-15T10:13:25.891Z,4.00
2023-04-15T10:16:05.051Z,4.47
2023-04-15T10:18:35.711Z,4.20
2023-04-15T10:21:02.749Z,4.30
2023-04-15T10:23:29.965Z,3.92
2023-04-15T10:25:58.962Z,3.80
2023-04-15T10:28:26.659Z,3.80
2023-04-15T10:30:53.785Z,3.88
2023-04-15T10:33:23.731Z,3.40
2023-04-15T10:35:51.802Z,3.58
2023-04-15T10:38:40.509Z,3.30
2023-04-15T10:41:21.217Z,3.00
2023-04-15T10:43:54.074Z,3.30
2023-04-15T10:46:25.827Z,3.63
2023-04-15T10:48:53.850Z,3.70
2023-04-15T10:51:31.681Z,4.00
2023-04-15T10:54:00.203Z,3.88
2023-04-15T10:56:29.822Z,3.15
2023-04-15T10:58:58.754Z,3.70
2023-04-15T11:01:53.189Z,3.45
2023-04-15T11:04:51.656Z,4.18
2023-04-15T11:07:36.878Z,4.40
2023-04-15T11:10:25.466Z,4.25
2023-04-15T11:12:54.337Z,3.25
2023-04-15T11:15:36.437Z,2.65
2023-04-15T11:18:09.552Z,2.55
2023-04-15T11:20:37.615Z,3.13
2023-04-15T11:23:14.078Z,3.13
2023-04-15T11:25:43.547Z,2.83
2023-04-15T11:28:12.847Z,2.72
2023-04-15T11:30:40.687Z,3.70
2023-04-15T11:33:14.317Z,3.80
2023-04-15T11:35:42.443Z,3.25
2023-04-15T11:38:14.371Z,3.30
2023-04-15T11:40:46.155Z,3.63
2023-04-15T11:43:22.840Z,3.53
2023-04-15T11:45:49.708Z,3.90
2023-04-15T11:48:16.832Z,3.50
2023-04-15T11:50:43.702Z,3.10
2023-04-15T11:53:13.122Z,2.10
2023-04-15T11:55:51.755Z,1.90
2023-04-15T11:58:26.592Z,2.13
2023-04-15T12:00:54.264Z,2.22
2023-04-15T12:03:30.124Z,2.80
2023-04-15T12:06:14.150Z,2.33
2023-04-15T12:09:00.397Z,2.50
2023-04-15T12:11:27.282Z,3.30
2023-04-15T12:14:10.077Z,3.33
2023-04-15T12:16:48.734Z,3.22
2023-04-15T12:19:44.315Z,4.35
2023-04-15T12:22:16.263Z,3.22
2023-04-15T12:24:47.053Z,2.90
2023-04-15T12:27:16.299Z,3.00
2023-04-15T12:29:44.032Z,23.30
2023-04-15T12:32:16.299Z,5.95
2023-04-15T12:34:57.089Z,2.42
2023-04-15T12:37:24.094Z,4.25
2023-04-15T12:39:51.770Z,3.17
2023-04-15T12:42:18.864Z,2.10
2023-04-15T12:44:46.368Z,3.65
2023-04-15T12:47:13.596Z,3.88
2023-04-15T12:49:41.174Z,2.90
2023-04-15T12:52:08.230Z,3.42
2023-04-15T12:54:36.069Z,3.17
2023-04-15T12:57:05.952Z,7.70
2023-04-15T12:59:33.963Z,2.90
2023-04-15T13:02:02.781Z,4.20
2023-04-15T13:04:31.108Z,3.20
2023-04-15T13:06:58.374Z,9.68
2023-04-15T13:09:25.308Z,6.28
2023-04-15T13:11:52.837Z,2.08
2023-04-15T13:14:19.888Z,2.30
2023-04-15T13:16:47.268Z,2.05
2023-04-15T13:19:14.399Z,2.28
2023-04-15T13:21:41.514Z,2.42
2023-04-15T13:24:09.478Z,2.17
2023-04-15T13:26:36.581Z,2.05
2023-04-15T13:29:03.656Z,2.00
2023-04-15T13:31:30.613Z,2.55
2023-04-15T13:33:57.927Z,2.47
2023-04-15T13:36:24.747Z,2.45
2023-04-15T13:38:52.032Z,2.40
2023-04-15T13:41:20.103Z,1.95
2023-04-15T13:43:47.306Z,2.10
2023-04-15T13:46:14.843Z,2.30
2023-04-15T13:48:41.911Z,2.40
2023-04-15T13:51:08.795Z,3.20
2023-04-15T13:53:38.771Z,2.70
2023-04-15T13:56:08.316Z,2.63
2023-04-15T13:58:37.530Z,2.40
2023-04-15T14:01:06.297Z,2.13
2023-04-15T14:03:35.149Z,2.20
2023-04-15T14:06:02.309Z,2.55
2023-04-15T14:08:30.810Z,2.10
2023-04-15T14:10:57.872Z,1.85
2023-04-15T14:13:25.007Z,1.70
2023-04-15T14:15:52.036Z,1.50
2023-04-15T14:18:19.057Z,1.10
2023-04-15T14:20:46.000Z,1.40
2023-04-15T14:23:12.822Z,1.20
2023-04-15T14:25:39.783Z,1.10
2023-04-15T14:28:06.727Z,1.45
2023-04-15T14:30:34.179Z,1.60
2023-04-15T14:33:01.368Z,1.60
2023-04-15T14:35:28.704Z,1.48
2023-04-15T14:37:55.801Z,1.65
2023-04-15T14:40:23.018Z,1.58
2023-04-15T14:42:49.963Z,1.77
2023-04-15T14:45:17.861Z,1.90
2023-04-15T14:47:45.420Z,2.08
2023-04-15T14:50:12.682Z,2.20
2023-04-15T14:52:39.734Z,2.10
2023-04-15T14:55:08.120Z,1.80
2023-04-15T14:57:35.079Z,1.90
2023-04-15T15:00:02.184Z,2.00
2023-04-15T15:02:38.247Z,2.00
2023-04-15T15:05:07.609Z,1.80
2023-04-15T15:07:36.142Z,2.10
2023-04-15T15:10:03.257Z,2.75
2023-04-15T15:12:30.380Z,2.22
2023-04-15T15:14:57.190Z,2.05
2023-04-15T15:17:24.131Z,3.03
2023-04-15T15:19:51.137Z,2.40
2023-04-15T15:22:20.141Z,3.10
2023-04-15T15:24:48.184Z,2.85
2023-04-15T15:27:15.174Z,2.90
2023-04-15T15:29:42.096Z,2.72
2023-04-15T15:32:08.982Z,2.63
2023-04-15T15:34:36.029Z,2.47
2023-04-15T15:37:02.968Z,2.35
2023-04-15T15:39:29.851Z,2.45
2023-04-15T15:41:56.685Z,2.67
2023-04-15T15:44:23.549Z,2.47
2023-04-15T15:46:51.333Z,2.70
2023-04-15T15:49:18.626Z,2.70
2023-04-15T15:51:47.009Z,2.45
2023-04-15T15:54:13.948Z,2.70
2023-04-15T15:56:42.266Z,2.30
2023-04-15T15:59:09.130Z,2.40
2023-04-15T16:01:36.049Z,2.63
2023-04-15T16:04:03.232Z,2.35
2023-04-15T16:06:33.252Z,2.15
2023-04-15T16:09:01.525Z,2.88
2023-04-15T16:11:29.552Z,2.10
2023-04-15T16:13:56.601Z,1.85
2023-04-15T16:16:24.264Z,3.10
2023-04-15T16:18:51.274Z,2.25
2023-04-15T16:21:19.548Z,1.95
2023-04-15T16:23:46.755Z,1.92
2023-04-15T16:26:13.754Z,1.92
2023-04-15T16:28:40.800Z,1.90
2023-04-15T16:31:07.783Z,1.70
2023-04-15T16:33:34.675Z,1.75
2023-04-15T16:36:01.554Z,1.60
2023-04-15T16:38:28.355Z,2.05
2023-04-15T16:40:56.315Z,1.80
2023-04-15T16:43:23.181Z,1.80
2023-04-15T16:45:51.439Z,2.15
2023-04-15T16:48:19.719Z,1.80
2023-04-15T16:50:47.235Z,1.50
2023-04-15T16:53:15.608Z,1.80
2023-04-15T16:55:42.452Z,1.60
2023-04-15T16:58:09.383Z,1.52
2023-04-15T17:00:37.256Z,1.73
2023-04-15T17:03:05.543Z,2.00
2023-04-15T17:05:32.995Z,1.70
2023-04-15T17:07:59.947Z,1.65
2023-04-15T17:10:27.691Z,1.83
2023-04-15T17:12:56.968Z,1.88
2023-04-15T17:15:23.943Z,1.85
2023-04-15T17:17:50.871Z,1.55
2023-04-15T17:20:17.846Z,1.75
2023-04-15T17:22:45.556Z,1.98
2023-04-15T17:25:13.752Z,1.60
2023-04-15T17:27:41.226Z,2.13
2023-04-15T17:30:08.856Z,1.70
2023-04-15T17:32:35.967Z,1.60
2023-04-15T17:35:06.492Z,1.50
2023-04-15T17:37:35.290Z,1.40
2023-04-15T17:40:02.641Z,1.50
2023-04-15T17:42:29.449Z,1.70
2023-04-15T17:44:56.422Z,1.80
2023-04-15T17:47:23.365Z,1.40
2023-04-15T17:49:50.191Z,1.88
2023-04-15T17:52:17.053Z,1.80
2023-04-15T17:54:43.919Z,1.60
2023-04-15T17:57:10.785Z,1.88
2023-04-15T17:59:37.645Z,1.80
2023-04-15T18:02:04.561Z,1.88
2023-04-15T18:04:31.773Z,1.98
2023-04-15T18:06:58.831Z,1.90
2023-04-15T18:09:25.800Z,2.17
2023-04-15T18:11:52.617Z,2.35
2023-04-15T18:14:31.181Z,1.98
2023-04-15T18:17:00.860Z,1.50
2023-04-15T18:19:27.824Z,1.77
2023-04-15T18:21:54.715Z,1.98
2023-04-15T18:24:22.463Z,1.98
2023-04-15T18:26:49.502Z,2.20
2023-04-15T18:29:16.678Z,1.90
2023-04-15T18:31:44.012Z,2.40
2023-04-15T18:34:10.963Z,2.20
2023-04-15T18:36:37.895Z,1.90
2023-04-15T18:39:05.556Z,2.50
2023-04-15T18:41:32.713Z,2.05
2023-04-15T18:43:59.661Z,2.13
2023-04-15T18:46:27.661Z,2.58
2023-04-15T18:48:54.660Z,1.95
2023-04-15T18:51:21.657Z,2.03
2023-04-15T18:53:48.746Z,2.38
2023-04-15T18:56:15.679Z,2.30
2023-04-15T18:59:27.934Z,2.20
2023-04-15T19:01:31.642Z,2.15
2023-04-15T19:03:58.756Z,2.58
2023-04-15T19:06:26.858Z,2.35
2023-04-15T19:08:53.678Z,2.22
2023-04-15T19:11:20.823Z,2.85
2023-04-15T19:13:47.689Z,2.13
2023-04-15T19:16:14.536Z,2.33
2023-04-15T19:18:41.362Z,2.50
2023-04-15T19:21:08.285Z,2.88
2023-04-15T19:23:35.109Z,2.72
2023-04-15T19:26:02.076Z,2.88
2023-04-15T19:28:29.012Z,3.20
2023-04-15T19:30:58.013Z,2.80
2023-04-15T19:33:27.334Z,2.63
2023-04-15T19:35:54.181Z,3.25
2023-04-15T19:38:21.043Z,2.67
2023-04-15T19:40:48.057Z,2.65
2023-04-15T19:43:14.885Z,2.80
2023-04-15T19:45:41.764Z,2.95
2023-04-15T19:48:08.616Z,3.10
2023-04-15T19:50:37.128Z,3.92
2023-04-15T19:53:04.109Z,4.13
2023-04-15T19:55:31.045Z,4.07
2023-04-15T19:57:57.834Z,4.80
2023-04-15T20:00:24.706Z,4.82
2023-04-15T20:02:51.619Z,4.35
2023-04-15T20:05:18.537Z,13.07
2023-04-15T20:07:48.390Z,25.50
2023-04-15T20:10:15.196Z,9.23
2023-04-15T20:12:51.230Z,4.97
2023-04-15T20:15:21.036Z,5.22
2023-04-15T20:17:47.893Z,12.63
2023-04-15T20:20:14.735Z,7.80
2023-04-15T20:22:41.608Z,10.13
2023-04-15T20:25:09.040Z,5.10
2023-04-15T20:27:36.006Z,4.55
2023-04-15T20:30:04.851Z,3.97
2023-04-15T20:32:36.100Z,4.22
2023-04-15T20:35:04.445Z,3.85
2023-04-15T20:37:33.406Z,4.15
2023-04-15T20:40:01.630Z,4.38
2023-04-15T20:42:32.180Z,4.03
2023-04-15T20:44:59.019Z,4.20
2023-04-15T20:47:26.072Z,4.55
2023-04-15T20:49:52.952Z,4.57
2023-04-15T20:52:19.726Z,4.40
2023-04-15T20:54:47.098Z,3.95
2023-04-15T20:57:13.976Z,4.35
2023-04-15T20:59:40.852Z,3.78
2023-04-15T21:02:07.941Z,3.58
2023-04-15T21:04:34.874Z,3.50
2023-04-15T21:07:01.743Z,3.28
2023-04-15T21:09:28.732Z,2.97
2023-04-15T21:14:25.731Z,3.10
2023-04-15T21:16:52.651Z,3.20
2023-04-15T21:19:19.597Z,2.78
2023-04-15T21:21:46.506Z,3.45
2023-04-15T21:24:13.476Z,3.00
2023-04-15T21:26:40.779Z,3.42
2023-04-15T21:29:10.520Z,2.92
2023-04-15T21:31:38.458Z,3.40
2023-04-15T21:34:05.821Z,2.78
2023-04-15T21:36:33.966Z,2.72
2023-04-15T21:39:01.096Z,2.70
2023-04-15T21:41:28.251Z,3.13
2023-04-15T21:43:55.138Z,2.90
2023-04-15T21:46:25.340Z,2.80
2023-04-15T21:48:54.231Z,3.00
2023-04-15T21:51:21.224Z,3.03
2023-04-15T21:53:48.335Z,2.83
2023-04-15T21:56:15.302Z,2.97
2023-04-15T21:58:43.025Z,2.58
2023-04-15T22:01:10.015Z,2.83
2023-04-15T22:03:37.164Z,3.00
2023-04-15T22:06:04.292Z,3.10
2023-04-15T22:08:41.585Z,2.50
2023-04-15T22:11:21.657Z,2.30
2023-04-15T22:13:48.670Z,2.63
2023-04-15T22:16:15.724Z,2.75
2023-04-15T22:18:42.633Z,2.80
2023-04-15T22:21:09.614Z,3.03
2023-04-15T22:23:36.514Z,2.90
2023-04-15T22:26:04.957Z,2.33
2023-04-15T22:28:31.876Z,2.58
2023-04-15T22:30:59.129Z,2.72
2023-04-15T22:33:26.198Z,2.33
2023-04-15T22:35:53.032Z,2.17
2023-04-15T22:38:19.867Z,2.70
2023-04-15T22:40:46.810Z,2.45
2023-04-15T22:43:13.684Z,2.33
2023-04-15T22:45:40.539Z,2.00
2023-04-15T22:48:07.313Z,2.38
2023-04-15T22:50:37.231Z,2.50
2023-04-15T22:53:04.094Z,2.83
2023-04-15T22:55:30.998Z,2.20
2023-04-15T22:57:57.829Z,2.03
2023-04-15T23:00:24.814Z,2.60
2023-04-15T23:02:51.872Z,2.28
2023-04-15T23:05:19.051Z,2.30
2023-04-15T23:07:46.021Z,1.80
2023-04-15T23:10:12.815Z,2.28
2023-04-15T23:12:39.746Z,2.20
2023-04-15T23:15:07.156Z,2.00
2023-04-15T23:17:34.855Z,2.05
2023-04-15T23:20:01.816Z,2.05
2023-04-15T23:22:28.758Z,2.28
2023-04-15T23:24:55.834Z,2.05
2023-04-15T23:27:22.923Z,2.22
2023-04-15T23:29:49.766Z,2.40
2023-04-15T23:32:16.652Z,2.78
2023-04-15T23:34:43.510Z,2.63
2023-04-15T23:37:10.516Z,3.30
2023-04-15T23:39:37.431Z,3.78
2023-04-15T23:42:04.383Z,4.20
2023-04-15T23:44:31.217Z,3.92
2023-04-15T23:46:58.166Z,4.20
2023-04-15T23:49:25.114Z,4.57
2023-04-15T23:51:52.034Z,4.15
2023-04-15T23:54:18.907Z,4.40
2023-04-15T23:56:46.300Z,4.80
2023-04-15T23:59:13.202Z,4.32
